sensor_id;sensor_type;location;lat;lon;timestamp;P1;durP1;ratioP1;P2;durP2;ratioP2
55015;SDS011;40919;43.236;21.590;2023-01-10T00:01:34;13.65;;;8.60;;
55015;SDS011;40919;43.236;21.590;2023-01-10T00:04:00;11.45;;;7.70;;
55015;SDS011;40919;43.236;21.590;2023-01-10T00:06:27;12.73;;;8.70;;
55015;SDS011;40919;43.236;21.590;2023-01-10T00:08:53;12.23;;;7.75;;
55015;SDS011;40919;43.236;21.590;2023-01-10T00:11:21;14.35;;;8.38;;
55015;SDS011;40919;43.236;21.590;2023-01-10T00:14:06;15.80;;;10.18;;
55015;SDS011;40919;43.236;21.590;2023-01-10T00:16:32;11.35;;;8.40;;
55015;SDS011;40919;43.236;21.590;2023-01-10T00:18:58;12.90;;;9.57;;
55015;SDS011;40919;43.236;21.590;2023-01-10T00:21:24;9.77;;;7.35;;
55015;SDS011;40919;43.236;21.590;2023-01-10T00:23:52;11.60;;;7.30;;
55015;SDS011;40919;43.236;21.590;2023-01-10T00:26:18;10.85;;;7.55;;
55015;SDS011;40919;43.236;21.590;2023-01-10T00:28:44;8.95;;;7.60;;
55015;SDS011;40919;43.236;21.590;2023-01-10T00:31:10;15.35;;;9.40;;
55015;SDS011;40919;43.236;21.590;2023-01-10T00:33:37;11.30;;;8.02;;
55015;SDS011;40919;43.236;21.590;2023-01-10T00:36:04;10.77;;;8.07;;
55015;SDS011;40919;43.236;21.590;2023-01-10T00:38:32;12.13;;;7.88;;
55015;SDS011;40919;43.236;21.590;2023-01-10T00:40:58;10.88;;;7.38;;
55015;SDS011;40919;43.236;21.590;2023-01-10T00:43:24;10.85;;;7.05;;
55015;SDS011;40919;43.236;21.590;2023-01-10T00:46:09;14.25;;;9.32;;
55015;SDS011;40919;43.236;21.590;2023-01-10T00:48:35;7.93;;;6.47;;
55015;SDS011;40919;43.236;21.590;2023-01-10T00:51:02;9.60;;;7.20;;
55015;SDS011;40919;43.236;21.590;2023-01-10T00:53:28;12.57;;;6.50;;
55015;SDS011;40919;43.236;21.590;2023-01-10T00:55:55;10.35;;;6.60;;
55015;SDS011;40919;43.236;21.590;2023-01-10T00:58:21;10.65;;;6.90;;
55015;SDS011;40919;43.236;21.590;2023-01-10T01:00:47;7.47;;;5.55;;
55015;SDS011;40919;43.236;21.590;2023-01-10T01:03:14;7.68;;;5.60;;
55015;SDS011;40919;43.236;21.590;2023-01-10T01:05:41;8.10;;;6.45;;
55015;SDS011;40919;43.236;21.590;2023-01-10T01:08:08;7.68;;;6.07;;
55015;SDS011;40919;43.236;21.590;2023-01-10T01:10:34;8.70;;;6.20;;
55015;SDS011;40919;43.236;21.590;2023-01-10T01:13:11;7.82;;;5.05;;
55015;SDS011;40919;43.236;21.590;2023-01-10T01:15:38;6.70;;;4.57;;
55015;SDS011;40919;43.236;21.590;2023-01-10T01:18:04;7.57;;;5.30;;
55015;SDS011;40919;43.236;21.590;2023-01-10T01:20:31;6.07;;;4.55;;
55015;SDS011;40919;43.236;21.590;2023-01-10T01:22:57;6.03;;;4.38;;
55015;SDS011;40919;43.236;21.590;2023-01-10T01:25:25;6.72;;;4.47;;
55015;SDS011;40919;43.236;21.590;2023-01-10T01:27:51;5.70;;;3.70;;
55015;SDS011;40919;43.236;21.590;2023-01-10T01:30:18;6.15;;;4.22;;
55015;SDS011;40919;43.236;21.590;2023-01-10T01:32:44;6.22;;;4.43;;
55015;SDS011;40919;43.236;21.590;2023-01-10T01:35:11;5.68;;;4.18;;
55015;SDS011;40919;43.236;21.590;2023-01-10T01:37:38;6.72;;;5.13;;
55015;SDS011;40919;43.236;21.590;2023-01-10T01:40:04;6.53;;;3.78;;
55015;SDS011;40919;43.236;21.590;2023-01-10T01:42:33;5.32;;;4.20;;
55015;SDS011;40919;43.236;21.590;2023-01-10T01:50:01;4.40;;;2.95;;
55015;SDS011;40919;43.236;21.590;2023-01-10T01:52:28;4.97;;;3.05;;
55015;SDS011;40919;43.236;21.590;2023-01-10T01:54:58;5.90;;;3.05;;
55015;SDS011;40919;43.236;21.590;2023-01-10T01:57:25;5.82;;;3.58;;
55015;SDS011;40919;43.236;21.590;2023-01-10T01:59:52;6.03;;;3.70;;
55015;SDS011;40919;43.236;21.590;2023-01-10T02:02:21;6.32;;;4.25;;
55015;SDS011;40919;43.236;21.590;2023-01-10T02:07:34;5.95;;;3.55;;
55015;SDS011;40919;43.236;21.590;2023-01-10T02:10:04;5.50;;;3.30;;
55015;SDS011;40919;43.236;21.590;2023-01-10T02:12:31;6.13;;;3.90;;
55015;SDS011;40919;43.236;21.590;2023-01-10T02:14:57;6.05;;;3.40;;
55015;SDS011;40919;43.236;21.590;2023-01-10T02:17:24;6.63;;;4.07;;
55015;SDS011;40919;43.236;21.590;2023-01-10T02:32:53;4.68;;;2.70;;
55015;SDS011;40919;43.236;21.590;2023-01-10T02:38:20;7.38;;;3.10;;
55015;SDS011;40919;43.236;21.590;2023-01-10T02:40:59;4.40;;;2.70;;
55015;SDS011;40919;43.236;21.590;2023-01-10T02:43:28;4.05;;;2.33;;
55015;SDS011;40919;43.236;21.590;2023-01-10T02:45:58;5.10;;;3.15;;
55015;SDS011;40919;43.236;21.590;2023-01-10T02:48:24;5.22;;;3.25;;
55015;SDS011;40919;43.236;21.590;2023-01-10T02:53:28;4.45;;;2.65;;
55015;SDS011;40919;43.236;21.590;2023-01-10T03:00:54;4.93;;;3.05;;
55015;SDS011;40919;43.236;21.590;2023-01-10T03:05:53;4.68;;;3.00;;
55015;SDS011;40919;43.236;21.590;2023-01-10T03:10:55;5.57;;;3.80;;
55015;SDS011;40919;43.236;21.590;2023-01-10T03:13:27;5.00;;;3.20;;
55015;SDS011;40919;43.236;21.590;2023-01-10T03:15:54;4.75;;;3.38;;
55015;SDS011;40919;43.236;21.590;2023-01-10T03:18:30;5.00;;;3.40;;
55015;SDS011;40919;43.236;21.590;2023-01-10T03:20:57;6.45;;;4.00;;
55015;SDS011;40919;43.236;21.590;2023-01-10T03:23:24;6.57;;;4.50;;
55015;SDS011;40919;43.236;21.590;2023-01-10T03:25:51;9.00;;;5.95;;
55015;SDS011;40919;43.236;21.590;2023-01-10T03:28:19;14.02;;;9.10;;
55015;SDS011;40919;43.236;21.590;2023-01-10T03:30:49;13.38;;;10.18;;
55015;SDS011;40919;43.236;21.590;2023-01-10T03:33:17;11.00;;;8.40;;
55015;SDS011;40919;43.236;21.590;2023-01-10T03:38:26;10.57;;;6.80;;
55015;SDS011;40919;43.236;21.590;2023-01-10T03:41:05;6.70;;;5.03;;
55015;SDS011;40919;43.236;21.590;2023-01-10T03:46:38;11.40;;;6.45;;
55015;SDS011;40919;43.236;21.590;2023-01-10T03:49:08;6.70;;;4.43;;
55015;SDS011;40919;43.236;21.590;2023-01-10T03:51:35;6.38;;;4.20;;
55015;SDS011;40919;43.236;21.590;2023-01-10T03:54:02;6.28;;;3.97;;
55015;SDS011;40919;43.236;21.590;2023-01-10T03:56:28;5.82;;;4.00;;
55015;SDS011;40919;43.236;21.590;2023-01-10T03:58:54;5.88;;;3.95;;
55015;SDS011;40919;43.236;21.590;2023-01-10T04:01:21;5.60;;;4.13;;
55015;SDS011;40919;43.236;21.590;2023-01-10T04:03:47;7.82;;;4.90;;
55015;SDS011;40919;43.236;21.590;2023-01-10T04:06:13;6.63;;;4.53;;
55015;SDS011;40919;43.236;21.590;2023-01-10T04:08:41;7.47;;;4.63;;
55015;SDS011;40919;43.236;21.590;2023-01-10T04:11:07;8.45;;;5.78;;
55015;SDS011;40919;43.236;21.590;2023-01-10T04:13:33;7.13;;;4.93;;
55015;SDS011;40919;43.236;21.590;2023-01-10T04:15:59;6.40;;;4.40;;
55015;SDS011;40919;43.236;21.590;2023-01-10T04:18:25;11.75;;;6.78;;
55015;SDS011;40919;43.236;21.590;2023-01-10T04:20:52;12.38;;;7.88;;
55015;SDS011;40919;43.236;21.590;2023-01-10T04:23:18;12.13;;;9.27;;
55015;SDS011;40919;43.236;21.590;2023-01-10T04:25:47;27.48;;;17.60;;
55015;SDS011;40919;43.236;21.590;2023-01-10T04:28:13;28.83;;;18.23;;
55015;SDS011;40919;43.236;21.590;2023-01-10T04:30:39;19.65;;;14.55;;
55015;SDS011;40919;43.236;21.590;2023-01-10T04:33:05;15.32;;;9.52;;
55015;SDS011;40919;43.236;21.590;2023-01-10T04:35:31;12.52;;;9.05;;
55015;SDS011;40919;43.236;21.590;2023-01-10T04:37:57;15.68;;;10.93;;
55015;SDS011;40919;43.236;21.590;2023-01-10T04:40:23;20.67;;;13.07;;
55015;SDS011;40919;43.236;21.590;2023-01-10T04:42:50;21.17;;;12.63;;
55015;SDS011;40919;43.236;21.590;2023-01-10T04:45:16;23.75;;;14.82;;
55015;SDS011;40919;43.236;21.590;2023-01-10T04:47:53;23.33;;;16.45;;
55015;SDS011;40919;43.236;21.590;2023-01-10T04:50:20;17.30;;;12.43;;
55015;SDS011;40919;43.236;21.590;2023-01-10T04:52:47;18.95;;;15.15;;
55015;SDS011;40919;43.236;21.590;2023-01-10T04:55:13;12.52;;;9.57;;
55015;SDS011;40919;43.236;21.590;2023-01-10T04:57:39;17.70;;;12.35;;
55015;SDS011;40919;43.236;21.590;2023-01-10T05:00:05;18.65;;;11.43;;
55015;SDS011;40919;43.236;21.590;2023-01-10T05:02:32;12.77;;;7.50;;
55015;SDS011;40919;43.236;21.590;2023-01-10T05:04:58;10.90;;;6.68;;
55015;SDS011;40919;43.236;21.590;2023-01-10T05:07:24;9.05;;;5.35;;
55015;SDS011;40919;43.236;21.590;2023-01-10T05:09:50;9.23;;;5.40;;
55015;SDS011;40919;43.236;21.590;2023-01-10T05:12:16;12.00;;;5.63;;
55015;SDS011;40919;43.236;21.590;2023-01-10T05:14:42;54.05;;;28.85;;
55015;SDS011;40919;43.236;21.590;2023-01-10T05:17:08;12.18;;;8.15;;
55015;SDS011;40919;43.236;21.590;2023-01-10T05:19:34;14.80;;;10.55;;
55015;SDS011;40919;43.236;21.590;2023-01-10T05:22:01;10.35;;;7.22;;
55015;SDS011;40919;43.236;21.590;2023-01-10T05:24:27;8.65;;;6.05;;
55015;SDS011;40919;43.236;21.590;2023-01-10T05:26:53;9.73;;;7.05;;
55015;SDS011;40919;43.236;21.590;2023-01-10T05:29:19;12.57;;;8.90;;
55015;SDS011;40919;43.236;21.590;2023-01-10T05:31:45;20.55;;;13.82;;
55015;SDS011;40919;43.236;21.590;2023-01-10T05:34:11;24.35;;;16.77;;
55015;SDS011;40919;43.236;21.590;2023-01-10T05:36:37;24.27;;;17.05;;
55015;SDS011;40919;43.236;21.590;2023-01-10T05:39:04;81.85;;;43.03;;
55015;SDS011;40919;43.236;21.590;2023-01-10T05:41:30;55.33;;;31.88;;
55015;SDS011;40919;43.236;21.590;2023-01-10T05:43:56;48.47;;;28.48;;
55015;SDS011;40919;43.236;21.590;2023-01-10T05:46:22;48.97;;;28.65;;
55015;SDS011;40919;43.236;21.590;2023-01-10T05:48:48;50.58;;;30.42;;
55015;SDS011;40919;43.236;21.590;2023-01-10T05:51:14;43.72;;;29.17;;
55015;SDS011;40919;43.236;21.590;2023-01-10T05:53:40;49.88;;;33.05;;
55015;SDS011;40919;43.236;21.590;2023-01-10T05:56:07;60.47;;;34.97;;
55015;SDS011;40919;43.236;21.590;2023-01-10T05:58:34;58.55;;;35.72;;
55015;SDS011;40919;43.236;21.590;2023-01-10T06:01:00;50.38;;;32.85;;
55015;SDS011;40919;43.236;21.590;2023-01-10T06:03:26;50.22;;;33.55;;
55015;SDS011;40919;43.236;21.590;2023-01-10T06:05:56;42.08;;;29.25;;
55015;SDS011;40919;43.236;21.590;2023-01-10T06:08:22;62.55;;;36.78;;
55015;SDS011;40919;43.236;21.590;2023-01-10T06:10:49;52.22;;;31.08;;
55015;SDS011;40919;43.236;21.590;2023-01-10T06:13:15;62.25;;;38.17;;
55015;SDS011;40919;43.236;21.590;2023-01-10T06:15:41;54.25;;;33.97;;
55015;SDS011;40919;43.236;21.590;2023-01-10T06:18:08;53.63;;;35.42;;
55015;SDS011;40919;43.236;21.590;2023-01-10T06:20:34;53.38;;;33.38;;
55015;SDS011;40919;43.236;21.590;2023-01-10T06:23:00;57.33;;;38.05;;
55015;SDS011;40919;43.236;21.590;2023-01-10T06:25:29;42.65;;;27.65;;
55015;SDS011;40919;43.236;21.590;2023-01-10T06:27:55;39.88;;;26.48;;
55015;SDS011;40919;43.236;21.590;2023-01-10T06:30:21;35.08;;;23.58;;
55015;SDS011;40919;43.236;21.590;2023-01-10T06:32:47;39.70;;;23.13;;
55015;SDS011;40919;43.236;21.590;2023-01-10T06:35:13;31.92;;;22.00;;
55015;SDS011;40919;43.236;21.590;2023-01-10T06:37:39;34.90;;;22.70;;
55015;SDS011;40919;43.236;21.590;2023-01-10T06:40:05;45.03;;;29.17;;
55015;SDS011;40919;43.236;21.590;2023-01-10T06:42:31;40.72;;;28.15;;
55015;SDS011;40919;43.236;21.590;2023-01-10T06:44:57;61.28;;;37.40;;
55015;SDS011;40919;43.236;21.590;2023-01-10T06:47:23;55.45;;;37.10;;
55015;SDS011;40919;43.236;21.590;2023-01-10T06:49:50;57.55;;;37.15;;
55015;SDS011;40919;43.236;21.590;2023-01-10T06:52:16;66.32;;;41.47;;
55015;SDS011;40919;43.236;21.590;2023-01-10T06:54:42;64.60;;;41.67;;
55015;SDS011;40919;43.236;21.590;2023-01-10T06:57:09;73.90;;;45.45;;
55015;SDS011;40919;43.236;21.590;2023-01-10T06:59:35;110.30;;;59.95;;
55015;SDS011;40919;43.236;21.590;2023-01-10T07:02:01;148.23;;;73.78;;
55015;SDS011;40919;43.236;21.590;2023-01-10T07:04:27;123.47;;;70.18;;
55015;SDS011;40919;43.236;21.590;2023-01-10T07:06:53;112.22;;;65.93;;
55015;SDS011;40919;43.236;21.590;2023-01-10T07:09:19;122.20;;;77.05;;
55015;SDS011;40919;43.236;21.590;2023-01-10T07:11:45;125.57;;;80.80;;
55015;SDS011;40919;43.236;21.590;2023-01-10T07:14:11;147.32;;;96.63;;
55015;SDS011;40919;43.236;21.590;2023-01-10T07:16:37;109.22;;;71.78;;
55015;SDS011;40919;43.236;21.590;2023-01-10T07:19:03;98.22;;;63.28;;
55015;SDS011;40919;43.236;21.590;2023-01-10T07:21:31;92.30;;;60.08;;
55015;SDS011;40919;43.236;21.590;2023-01-10T07:23:57;79.43;;;54.22;;
55015;SDS011;40919;43.236;21.590;2023-01-10T07:26:23;95.93;;;60.33;;
55015;SDS011;40919;43.236;21.590;2023-01-10T07:28:49;91.10;;;56.42;;
55015;SDS011;40919;43.236;21.590;2023-01-10T07:31:16;80.15;;;52.67;;
55015;SDS011;40919;43.236;21.590;2023-01-10T07:33:43;78.05;;;50.65;;
55015;SDS011;40919;43.236;21.590;2023-01-10T07:36:09;112.07;;;69.47;;
55015;SDS011;40919;43.236;21.590;2023-01-10T07:38:36;83.28;;;54.47;;
55015;SDS011;40919;43.236;21.590;2023-01-10T07:41:02;80.65;;;50.58;;
55015;SDS011;40919;43.236;21.590;2023-01-10T07:43:28;64.65;;;41.60;;
55015;SDS011;40919;43.236;21.590;2023-01-10T07:45:57;57.42;;;36.35;;
55015;SDS011;40919;43.236;21.590;2023-01-10T07:48:23;70.40;;;41.33;;
55015;SDS011;40919;43.236;21.590;2023-01-10T07:50:49;97.13;;;53.78;;
55015;SDS011;40919;43.236;21.590;2023-01-10T07:53:15;63.45;;;42.03;;
55015;SDS011;40919;43.236;21.590;2023-01-10T07:55:41;63.17;;;40.10;;
55015;SDS011;40919;43.236;21.590;2023-01-10T07:58:09;47.83;;;30.42;;
55015;SDS011;40919;43.236;21.590;2023-01-10T08:00:35;48.58;;;30.95;;
55015;SDS011;40919;43.236;21.590;2023-01-10T08:03:02;50.78;;;31.65;;
55015;SDS011;40919;43.236;21.590;2023-01-10T08:05:28;66.80;;;39.20;;
55015;SDS011;40919;43.236;21.590;2023-01-10T08:07:54;55.03;;;34.60;;
55015;SDS011;40919;43.236;21.590;2023-01-10T08:10:24;65.20;;;40.83;;
55015;SDS011;40919;43.236;21.590;2023-01-10T08:12:50;61.58;;;39.58;;
55015;SDS011;40919;43.236;21.590;2023-01-10T08:15:16;74.32;;;48.63;;
55015;SDS011;40919;43.236;21.590;2023-01-10T08:17:42;75.57;;;48.85;;
55015;SDS011;40919;43.236;21.590;2023-01-10T08:20:08;67.97;;;43.08;;
55015;SDS011;40919;43.236;21.590;2023-01-10T08:22:35;64.32;;;41.38;;
55015;SDS011;40919;43.236;21.590;2023-01-10T08:25:01;72.95;;;45.95;;
55015;SDS011;40919;43.236;21.590;2023-01-10T08:27:27;95.40;;;48.15;;
55015;SDS011;40919;43.236;21.590;2023-01-10T08:29:53;96.50;;;53.35;;
55015;SDS011;40919;43.236;21.590;2023-01-10T08:32:19;81.47;;;47.42;;
55015;SDS011;40919;43.236;21.590;2023-01-10T08:34:46;90.63;;;54.13;;
55015;SDS011;40919;43.236;21.590;2023-01-10T08:37:12;90.35;;;53.38;;
55015;SDS011;40919;43.236;21.590;2023-01-10T08:39:39;99.78;;;55.15;;
55015;SDS011;40919;43.236;21.590;2023-01-10T08:42:05;113.15;;;63.10;;
55015;SDS011;40919;43.236;21.590;2023-01-10T08:44:31;110.75;;;64.57;;
55015;SDS011;40919;43.236;21.590;2023-01-10T08:46:57;74.45;;;47.28;;
55015;SDS011;40919;43.236;21.590;2023-01-10T08:49:23;59.38;;;40.17;;
55015;SDS011;40919;43.236;21.590;2023-01-10T08:51:49;64.00;;;41.85;;
55015;SDS011;40919;43.236;21.590;2023-01-10T08:54:15;68.82;;;42.17;;
55015;SDS011;40919;43.236;21.590;2023-01-10T08:56:42;81.60;;;49.00;;
55015;SDS011;40919;43.236;21.590;2023-01-10T08:59:08;85.20;;;46.95;;
55015;SDS011;40919;43.236;21.590;2023-01-10T09:01:34;103.10;;;57.08;;
55015;SDS011;40919;43.236;21.590;2023-01-10T09:04:00;101.35;;;55.83;;
55015;SDS011;40919;43.236;21.590;2023-01-10T09:06:27;117.22;;;64.22;;
55015;SDS011;40919;43.236;21.590;2023-01-10T09:08:53;135.60;;;76.75;;
55015;SDS011;40919;43.236;21.590;2023-01-10T09:11:19;116.03;;;70.40;;
55015;SDS011;40919;43.236;21.590;2023-01-10T09:13:47;108.80;;;72.20;;
55015;SDS011;40919;43.236;21.590;2023-01-10T09:16:14;96.28;;;61.88;;
55015;SDS011;40919;43.236;21.590;2023-01-10T09:18:40;62.45;;;41.17;;
55015;SDS011;40919;43.236;21.590;2023-01-10T09:21:07;50.63;;;33.90;;
55015;SDS011;40919;43.236;21.590;2023-01-10T09:23:33;66.10;;;42.55;;
55015;SDS011;40919;43.236;21.590;2023-01-10T09:25:59;77.22;;;49.75;;
55015;SDS011;40919;43.236;21.590;2023-01-10T09:28:26;83.80;;;52.63;;
55015;SDS011;40919;43.236;21.590;2023-01-10T09:30:53;101.00;;;64.40;;
55015;SDS011;40919;43.236;21.590;2023-01-10T09:33:19;101.80;;;63.80;;
55015;SDS011;40919;43.236;21.590;2023-01-10T09:35:45;126.32;;;82.22;;
55015;SDS011;40919;43.236;21.590;2023-01-10T09:38:12;112.82;;;75.07;;
55015;SDS011;40919;43.236;21.590;2023-01-10T09:46:36;48.25;;;33.47;;
55015;SDS011;40919;43.236;21.590;2023-01-10T09:51:40;50.45;;;33.17;;
55015;SDS011;40919;43.236;21.590;2023-01-10T09:56:39;61.10;;;42.33;;
55015;SDS011;40919;43.236;21.590;2023-01-10T09:59:05;54.55;;;36.83;;
55015;SDS011;40919;43.236;21.590;2023-01-10T10:01:32;38.13;;;26.77;;
55015;SDS011;40919;43.236;21.590;2023-01-10T10:06:36;32.60;;;22.70;;
55015;SDS011;40919;43.236;21.590;2023-01-10T10:09:03;31.90;;;22.20;;
55015;SDS011;40919;43.236;21.590;2023-01-10T10:11:33;34.33;;;21.23;;
55015;SDS011;40919;43.236;21.590;2023-01-10T10:27:03;35.45;;;24.08;;
55015;SDS011;40919;43.236;21.590;2023-01-10T10:34:36;20.30;;;14.23;;
55015;SDS011;40919;43.236;21.590;2023-01-10T10:37:12;23.83;;;15.93;;
55015;SDS011;40919;43.236;21.590;2023-01-10T10:39:44;17.15;;;12.27;;
55015;SDS011;40919;43.236;21.590;2023-01-10T10:42:11;15.02;;;9.68;;
55015;SDS011;40919;43.236;21.590;2023-01-10T10:44:39;18.23;;;12.23;;
55015;SDS011;40919;43.236;21.590;2023-01-10T10:47:17;17.25;;;10.63;;
55015;SDS011;40919;43.236;21.590;2023-01-10T10:52:24;25.17;;;15.75;;
55015;SDS011;40919;43.236;21.590;2023-01-10T10:54:51;24.55;;;13.95;;
55015;SDS011;40919;43.236;21.590;2023-01-10T10:57:18;27.10;;;16.52;;
55015;SDS011;40919;43.236;21.590;2023-01-10T10:59:46;19.33;;;11.38;;
55015;SDS011;40919;43.236;21.590;2023-01-10T11:02:34;45.70;;;29.90;;
55015;SDS011;40919;43.236;21.590;2023-01-10T11:05:03;74.38;;;59.85;;
55015;SDS011;40919;43.236;21.590;2023-01-10T11:07:34;49.67;;;37.00;;
55015;SDS011;40919;43.236;21.590;2023-01-10T11:10:09;37.45;;;25.85;;
55015;SDS011;40919;43.236;21.590;2023-01-10T11:12:46;39.55;;;26.45;;
55015;SDS011;40919;43.236;21.590;2023-01-10T11:18:06;16.40;;;9.60;;
55015;SDS011;40919;43.236;21.590;2023-01-10T11:20:32;11.02;;;7.60;;
55015;SDS011;40919;43.236;21.590;2023-01-10T11:22:59;34.35;;;21.05;;
55015;SDS011;40919;43.236;21.590;2023-01-10T11:25:25;24.45;;;16.40;;
55015;SDS011;40919;43.236;21.590;2023-01-10T11:27:56;21.65;;;12.63;;
55015;SDS011;40919;43.236;21.590;2023-01-10T11:30:34;13.15;;;7.22;;
55015;SDS011;40919;43.236;21.590;2023-01-10T11:33:01;15.23;;;9.82;;
55015;SDS011;40919;43.236;21.590;2023-01-10T11:35:29;12.73;;;8.77;;
55015;SDS011;40919;43.236;21.590;2023-01-10T11:38:08;20.77;;;12.63;;
55015;SDS011;40919;43.236;21.590;2023-01-10T11:40:59;17.17;;;10.98;;
55015;SDS011;40919;43.236;21.590;2023-01-10T11:48:33;11.43;;;6.68;;
55015;SDS011;40919;43.236;21.590;2023-01-10T11:51:04;17.65;;;9.10;;
55015;SDS011;40919;43.236;21.590;2023-01-10T11:53:40;14.88;;;9.70;;
55015;SDS011;40919;43.236;21.590;2023-01-10T11:56:11;13.65;;;9.48;;
55015;SDS011;40919;43.236;21.590;2023-01-10T11:58:38;6.97;;;5.05;;
55015;SDS011;40919;43.236;21.590;2023-01-10T12:01:05;14.35;;;8.57;;
55015;SDS011;40919;43.236;21.590;2023-01-10T12:03:32;13.43;;;8.75;;
55015;SDS011;40919;43.236;21.590;2023-01-10T12:06:02;16.17;;;10.82;;
55015;SDS011;40919;43.236;21.590;2023-01-10T12:08:30;16.45;;;9.13;;
55015;SDS011;40919;43.236;21.590;2023-01-10T12:11:01;10.75;;;6.65;;
55015;SDS011;40919;43.236;21.590;2023-01-10T12:13:28;12.07;;;7.70;;
55015;SDS011;40919;43.236;21.590;2023-01-10T12:18:39;11.48;;;7.53;;
55015;SDS011;40919;43.236;21.590;2023-01-10T12:21:06;9.60;;;6.85;;
55015;SDS011;40919;43.236;21.590;2023-01-10T12:23:34;11.73;;;7.93;;
55015;SDS011;40919;43.236;21.590;2023-01-10T12:26:06;13.55;;;8.57;;
55015;SDS011;40919;43.236;21.590;2023-01-10T12:28:37;20.27;;;13.18;;
55015;SDS011;40919;43.236;21.590;2023-01-10T12:31:05;18.05;;;12.70;;
55015;SDS011;40919;43.236;21.590;2023-01-10T12:33:39;18.40;;;12.20;;
55015;SDS011;40919;43.236;21.590;2023-01-10T12:36:31;21.63;;;14.48;;
55015;SDS011;40919;43.236;21.590;2023-01-10T12:52:38;11.10;;;7.00;;
55015;SDS011;40919;43.236;21.590;2023-01-10T12:55:19;9.27;;;6.63;;
55015;SDS011;40919;43.236;21.590;2023-01-10T12:57:52;12.65;;;7.72;;
55015;SDS011;40919;43.236;21.590;2023-01-10T13:00:23;12.80;;;6.78;;
55015;SDS011;40919;43.236;21.590;2023-01-10T13:02:58;15.18;;;9.60;;
55015;SDS011;40919;43.236;21.590;2023-01-10T13:05:27;13.63;;;10.48;;
55015;SDS011;40919;43.236;21.590;2023-01-10T13:07:54;13.85;;;8.32;;
55015;SDS011;40919;43.236;21.590;2023-01-10T13:10:23;13.82;;;8.80;;
55015;SDS011;40919;43.236;21.590;2023-01-10T13:12:55;16.58;;;10.32;;
55015;SDS011;40919;43.236;21.590;2023-01-10T13:15:23;15.98;;;9.95;;
55015;SDS011;40919;43.236;21.590;2023-01-10T13:17:59;18.65;;;9.02;;
55015;SDS011;40919;43.236;21.590;2023-01-10T13:20:38;17.45;;;11.27;;
55015;SDS011;40919;43.236;21.590;2023-01-10T13:23:12;36.47;;;25.35;;
55015;SDS011;40919;43.236;21.590;2023-01-10T13:25:40;20.80;;;15.02;;
55015;SDS011;40919;43.236;21.590;2023-01-10T13:28:15;21.35;;;13.23;;
55015;SDS011;40919;43.236;21.590;2023-01-10T13:30:42;20.80;;;15.02;;
55015;SDS011;40919;43.236;21.590;2023-01-10T13:33:19;25.38;;;16.23;;
55015;SDS011;40919;43.236;21.590;2023-01-10T13:35:46;24.00;;;15.25;;
55015;SDS011;40919;43.236;21.590;2023-01-10T13:41:15;20.57;;;14.87;;
55015;SDS011;40919;43.236;21.590;2023-01-10T13:44:02;28.05;;;17.80;;
55015;SDS011;40919;43.236;21.590;2023-01-10T13:51:24;30.27;;;17.65;;
55015;SDS011;40919;43.236;21.590;2023-01-10T13:54:00;35.47;;;22.15;;
55015;SDS011;40919;43.236;21.590;2023-01-10T13:56:47;45.45;;;29.30;;
55015;SDS011;40919;43.236;21.590;2023-01-10T14:02:25;41.53;;;30.25;;
55015;SDS011;40919;43.236;21.590;2023-01-10T14:04:59;66.53;;;42.20;;
55015;SDS011;40919;43.236;21.590;2023-01-10T14:07:27;86.15;;;52.22;;
55015;SDS011;40919;43.236;21.590;2023-01-10T14:09:59;74.82;;;48.08;;
55015;SDS011;40919;43.236;21.590;2023-01-10T14:12:31;31.75;;;22.30;;
55015;SDS011;40919;43.236;21.590;2023-01-10T14:17:44;82.00;;;20.83;;
55015;SDS011;40919;43.236;21.590;2023-01-10T14:20:23;56.72;;;13.93;;
55015;SDS011;40919;43.236;21.590;2023-01-10T14:23:07;28.45;;;9.15;;
55015;SDS011;40919;43.236;21.590;2023-01-10T14:25:39;13.95;;;8.27;;
55015;SDS011;40919;43.236;21.590;2023-01-10T14:28:29;24.00;;;14.88;;
55015;SDS011;40919;43.236;21.590;2023-01-10T14:33:25;18.65;;;11.85;;
55015;SDS011;40919;43.236;21.590;2023-01-10T14:36:08;17.33;;;11.45;;
55015;SDS011;40919;43.236;21.590;2023-01-10T14:38:46;9.77;;;6.82;;
55015;SDS011;40919;43.236;21.590;2023-01-10T14:44:26;14.48;;;8.93;;
55015;SDS011;40919;43.236;21.590;2023-01-10T14:46:47;19.13;;;13.65;;
55015;SDS011;40919;43.236;21.590;2023-01-10T14:49:29;12.10;;;8.40;;
55015;SDS011;40919;43.236;21.590;2023-01-10T14:52:24;15.85;;;8.98;;
55015;SDS011;40919;43.236;21.590;2023-01-10T14:55:09;22.15;;;13.70;;
55015;SDS011;40919;43.236;21.590;2023-01-10T14:57:37;15.85;;;9.02;;
55015;SDS011;40919;43.236;21.590;2023-01-10T15:00:05;18.13;;;12.32;;
55015;SDS011;40919;43.236;21.590;2023-01-10T15:02:32;27.25;;;19.58;;
55015;SDS011;40919;43.236;21.590;2023-01-10T15:04:59;18.48;;;13.23;;
55015;SDS011;40919;43.236;21.590;2023-01-10T15:07:26;14.85;;;8.23;;
55015;SDS011;40919;43.236;21.590;2023-01-10T15:09:53;16.35;;;8.43;;
55015;SDS011;40919;43.236;21.590;2023-01-10T15:12:24;15.18;;;7.53;;
55015;SDS011;40919;43.236;21.590;2023-01-10T15:17:42;12.25;;;7.47;;
55015;SDS011;40919;43.236;21.590;2023-01-10T15:20:18;12.90;;;8.57;;
55015;SDS011;40919;43.236;21.590;2023-01-10T15:22:46;17.65;;;10.55;;
55015;SDS011;40919;43.236;21.590;2023-01-10T15:27:49;10.65;;;7.15;;
55015;SDS011;40919;43.236;21.590;2023-01-10T15:30:26;17.73;;;11.93;;
55015;SDS011;40919;43.236;21.590;2023-01-10T15:32:56;31.05;;;19.95;;
55015;SDS011;40919;43.236;21.590;2023-01-10T15:35:24;20.13;;;12.30;;
55015;SDS011;40919;43.236;21.590;2023-01-10T15:37:51;19.45;;;14.57;;
55015;SDS011;40919;43.236;21.590;2023-01-10T15:40:23;17.30;;;11.70;;
55015;SDS011;40919;43.236;21.590;2023-01-10T15:42:49;9.57;;;6.43;;
55015;SDS011;40919;43.236;21.590;2023-01-10T15:45:27;16.02;;;10.35;;
55015;SDS011;40919;43.236;21.590;2023-01-10T15:47:56;19.52;;;11.95;;
55015;SDS011;40919;43.236;21.590;2023-01-10T15:55:33;25.00;;;15.93;;
55015;SDS011;40919;43.236;21.590;2023-01-10T15:58:00;23.55;;;15.07;;
55015;SDS011;40919;43.236;21.590;2023-01-10T16:00:26;24.48;;;14.60;;
55015;SDS011;40919;43.236;21.590;2023-01-10T16:02:54;25.75;;;16.25;;
55015;SDS011;40919;43.236;21.590;2023-01-10T16:05:20;26.30;;;16.15;;
55015;SDS011;40919;43.236;21.590;2023-01-10T16:07:47;27.48;;;15.57;;
55015;SDS011;40919;43.236;21.590;2023-01-10T16:10:32;32.22;;;17.75;;
55015;SDS011;40919;43.236;21.590;2023-01-10T16:13:07;31.13;;;14.77;;
55015;SDS011;40919;43.236;21.590;2023-01-10T16:15:57;24.67;;;15.05;;
55015;SDS011;40919;43.236;21.590;2023-01-10T16:18:24;27.40;;;14.27;;
55015;SDS011;40919;43.236;21.590;2023-01-10T16:20:51;30.83;;;17.58;;
55015;SDS011;40919;43.236;21.590;2023-01-10T16:23:19;21.30;;;12.13;;
55015;SDS011;40919;43.236;21.590;2023-01-10T16:25:47;18.27;;;11.38;;
55015;SDS011;40919;43.236;21.590;2023-01-10T16:28:14;18.88;;;12.57;;
55015;SDS011;40919;43.236;21.590;2023-01-10T16:30:41;16.08;;;12.50;;
55015;SDS011;40919;43.236;21.590;2023-01-10T16:33:11;33.88;;;24.02;;
55015;SDS011;40919;43.236;21.590;2023-01-10T16:35:41;27.25;;;17.67;;